Pagina principale
METAR-TAF:

METAR-TAF

Aeroporti :

Aeroporto di Oslo-Gardermoen

Oslo, Norvegia

latitudine: 60-12N, longitudine: 011-05E, altezza: 208 m

Osservazione

Il bollettino è stato emesso 32 minuti fa, alle 13:20 UTC
Vento 12 kt da sud-ovest, variando fra sud e ovest
Temperature 25°C
Umidità 24%
Pressione 1027 hPa
Visibilità 10 km o più
nessuna nube inferiore a 1500 m e nessun cumulonembo

METAR: ENGM 241320Z 22012KT 180V260 CAVOK 25/03 Q1027 NOSIG

Ora: 15:52 (13:52 UTC)

Previsione

Previsione valida dal 24 alle 12 UTC al 25 alle 12 UTC
Vento 12 kt da sud/sud-ovest
Visibilità 10 km o più
nessuna nube inferiore a 1500 m e nessun cumulonembo
Evoluzione graduale
dal 24 alle 20 UTC al 24 alle 22 UTC
Vento 3 kt da direzioni variabili

TAF: ENGM 2412/2512 20012KT CAVOK BECMG 2420/2422 VRB03KT

Osservazioni e previsioni meteorologiche di più di 4000 aeroporti (messaggi METAR e TAF).

Le stazioni disponibili sono rappresentate dai dischi gialli e rossi sulla carta.

Puntare il mouse per vedere il nome della stazione.

Clicca sopra per visualizzare le osservazioni e previsioni meteorologiche.

Per cambiare la mappa : fare clic sui pulsanti verdi con una croce nera per ingrandire, il pulsante verde con un trattino per diminuire, o sulla freccia verde per le mappe adiacenti.


METAR-TAF: